In Rescue
 
Open Full Screen Window  High Contrast Mode
Wind Gusting 00 knots
03
July 25, 2021 4:43 AM PDT
Weather Information
Wind Direction
  260 °
Wind Speed
  03 kt (3 mph)
Wind Gust
  00 kt (0 mph)
Altimeter
29.97 in
Visibility
10 SM
Temperature
20° C
68° F
Dewpoint
15° C
59° F
Humidity
73%
1hr Rain Fall
00.00 in.
24hr Rain Fall
00.00 in.
Sky Condition
Clear
VFR

METAR KSBD 251143Z AUTO 26003KT 10SM CLR 20/15 A2997 RMK AO2 T02000145

FAA Disclaimer: The data displayed is for advisory purposes only and is not to be used for flight planning or operations.